sensor_id;sensor_type;location;lat;lon;timestamp;P1;durP1;ratioP1;P2;durP2;ratioP2
11817;SDS011;5966;52.402;5.322;2023-03-23T00:01:17;4.83;;;3.50;;
11817;SDS011;5966;52.402;5.322;2023-03-23T00:03:47;6.37;;;3.80;;
11817;SDS011;5966;52.402;5.322;2023-03-23T00:06:15;4.67;;;3.23;;
11817;SDS011;5966;52.402;5.322;2023-03-23T00:08:43;5.27;;;3.37;;
11817;SDS011;5966;52.402;5.322;2023-03-23T00:11:12;4.47;;;3.03;;
11817;SDS011;5966;52.402;5.322;2023-03-23T00:13:40;4.67;;;3.10;;
11817;SDS011;5966;52.402;5.322;2023-03-23T00:16:09;8.67;;;2.87;;
11817;SDS011;5966;52.402;5.322;2023-03-23T00:18:42;6.10;;;3.03;;
11817;SDS011;5966;52.402;5.322;2023-03-23T00:21:11;6.13;;;3.30;;
11817;SDS011;5966;52.402;5.322;2023-03-23T00:23:38;5.17;;;3.10;;
11817;SDS011;5966;52.402;5.322;2023-03-23T00:26:10;6.87;;;3.50;;
11817;SDS011;5966;52.402;5.322;2023-03-23T00:28:38;4.93;;;2.87;;
11817;SDS011;5966;52.402;5.322;2023-03-23T00:31:06;5.23;;;2.90;;
11817;SDS011;5966;52.402;5.322;2023-03-23T00:33:36;6.23;;;3.27;;
11817;SDS011;5966;52.402;5.322;2023-03-23T00:36:06;5.27;;;3.50;;
11817;SDS011;5966;52.402;5.322;2023-03-23T00:38:36;4.50;;;3.10;;
11817;SDS011;5966;52.402;5.322;2023-03-23T00:41:04;5.07;;;2.80;;
11817;SDS011;5966;52.402;5.322;2023-03-23T00:43:32;3.43;;;2.93;;
11817;SDS011;5966;52.402;5.322;2023-03-23T00:46:01;5.07;;;3.10;;
11817;SDS011;5966;52.402;5.322;2023-03-23T00:48:33;4.17;;;2.67;;
11817;SDS011;5966;52.402;5.322;2023-03-23T00:51:01;5.13;;;3.13;;
11817;SDS011;5966;52.402;5.322;2023-03-23T00:53:31;4.60;;;2.63;;
11817;SDS011;5966;52.402;5.322;2023-03-23T00:55:59;6.70;;;3.17;;
11817;SDS011;5966;52.402;5.322;2023-03-23T00:58:26;4.40;;;2.70;;
11817;SDS011;5966;52.402;5.322;2023-03-23T01:00:53;5.40;;;2.50;;
11817;SDS011;5966;52.402;5.322;2023-03-23T01:03:21;5.43;;;2.73;;
11817;SDS011;5966;52.402;5.322;2023-03-23T01:05:50;6.20;;;2.50;;
11817;SDS011;5966;52.402;5.322;2023-03-23T01:08:18;4.40;;;2.27;;
11817;SDS011;5966;52.402;5.322;2023-03-23T01:10:46;7.10;;;2.57;;
11817;SDS011;5966;52.402;5.322;2023-03-23T01:13:14;3.43;;;2.40;;
11817;SDS011;5966;52.402;5.322;2023-03-23T01:15:42;6.00;;;2.70;;
11817;SDS011;5966;52.402;5.322;2023-03-23T01:18:09;4.40;;;2.87;;
11817;SDS011;5966;52.402;5.322;2023-03-23T01:20:36;3.43;;;2.53;;
11817;SDS011;5966;52.402;5.322;2023-03-23T01:23:03;5.10;;;2.53;;
11817;SDS011;5966;52.402;5.322;2023-03-23T01:25:32;3.77;;;2.57;;
11817;SDS011;5966;52.402;5.322;2023-03-23T01:28:02;5.47;;;2.50;;
11817;SDS011;5966;52.402;5.322;2023-03-23T01:30:30;5.47;;;2.40;;
11817;SDS011;5966;52.402;5.322;2023-03-23T01:32:57;3.37;;;2.20;;
11817;SDS011;5966;52.402;5.322;2023-03-23T01:35:24;3.93;;;2.37;;
11817;SDS011;5966;52.402;5.322;2023-03-23T01:37:51;4.27;;;2.20;;
11817;SDS011;5966;52.402;5.322;2023-03-23T01:40:18;4.77;;;2.40;;
11817;SDS011;5966;52.402;5.322;2023-03-23T01:42:45;2.90;;;2.33;;
11817;SDS011;5966;52.402;5.322;2023-03-23T01:45:22;3.77;;;2.17;;
11817;SDS011;5966;52.402;5.322;2023-03-23T01:47:54;2.63;;;2.23;;
11817;SDS011;5966;52.402;5.322;2023-03-23T01:50:36;5.23;;;2.27;;
11817;SDS011;5966;52.402;5.322;2023-03-23T01:53:09;3.73;;;2.20;;
11817;SDS011;5966;52.402;5.322;2023-03-23T01:55:38;4.93;;;2.30;;
11817;SDS011;5966;52.402;5.322;2023-03-23T01:58:07;2.83;;;2.10;;
11817;SDS011;5966;52.402;5.322;2023-03-23T02:00:35;4.03;;;2.30;;
11817;SDS011;5966;52.402;5.322;2023-03-23T02:03:07;5.97;;;2.33;;
11817;SDS011;5966;52.402;5.322;2023-03-23T02:05:37;4.07;;;2.20;;
11817;SDS011;5966;52.402;5.322;2023-03-23T02:08:07;5.03;;;2.10;;
11817;SDS011;5966;52.402;5.322;2023-03-23T02:10:35;3.40;;;2.20;;
11817;SDS011;5966;52.402;5.322;2023-03-23T02:13:04;3.30;;;2.00;;
11817;SDS011;5966;52.402;5.322;2023-03-23T02:15:36;3.47;;;1.90;;
11817;SDS011;5966;52.402;5.322;2023-03-23T02:18:14;3.60;;;2.20;;
11817;SDS011;5966;52.402;5.322;2023-03-23T02:24:01;2.40;;;1.70;;
11817;SDS011;5966;52.402;5.322;2023-03-23T02:26:47;3.87;;;1.63;;
11817;SDS011;5966;52.402;5.322;2023-03-23T02:29:25;2.20;;;1.93;;
11817;SDS011;5966;52.402;5.322;2023-03-23T02:32:12;3.20;;;2.20;;
11817;SDS011;5966;52.402;5.322;2023-03-23T02:34:49;3.13;;;1.70;;
11817;SDS011;5966;52.402;5.322;2023-03-23T02:37:19;3.23;;;1.77;;
11817;SDS011;5966;52.402;5.322;2023-03-23T02:39:51;3.47;;;2.00;;
11817;SDS011;5966;52.402;5.322;2023-03-23T02:42:22;4.57;;;2.03;;
11817;SDS011;5966;52.402;5.322;2023-03-23T02:44:52;2.97;;;2.00;;
11817;SDS011;5966;52.402;5.322;2023-03-23T02:47:22;4.40;;;2.30;;
11817;SDS011;5966;52.402;5.322;2023-03-23T02:49:53;3.60;;;2.13;;
11817;SDS011;5966;52.402;5.322;2023-03-23T02:52:22;3.30;;;2.03;;
11817;SDS011;5966;52.402;5.322;2023-03-23T02:54:51;3.10;;;1.67;;
11817;SDS011;5966;52.402;5.322;2023-03-23T02:57:20;1.77;;;1.67;;
11817;SDS011;5966;52.402;5.322;2023-03-23T02:59:48;3.67;;;2.40;;
11817;SDS011;5966;52.402;5.322;2023-03-23T03:02:15;2.67;;;1.87;;
11817;SDS011;5966;52.402;5.322;2023-03-23T03:04:46;2.67;;;1.80;;
11817;SDS011;5966;52.402;5.322;2023-03-23T03:07:25;4.53;;;2.10;;
11817;SDS011;5966;52.402;5.322;2023-03-23T03:10:03;5.37;;;1.80;;
11817;SDS011;5966;52.402;5.322;2023-03-23T03:12:34;4.17;;;1.60;;
11817;SDS011;5966;52.402;5.322;2023-03-23T03:15:10;2.97;;;1.70;;
11817;SDS011;5966;52.402;5.322;2023-03-23T03:17:47;5.50;;;2.00;;
11817;SDS011;5966;52.402;5.322;2023-03-23T03:20:21;2.63;;;1.73;;
11817;SDS011;5966;52.402;5.322;2023-03-23T03:22:51;2.83;;;1.60;;
11817;SDS011;5966;52.402;5.322;2023-03-23T03:25:20;2.03;;;1.80;;
11817;SDS011;5966;52.402;5.322;2023-03-23T03:27:48;3.57;;;1.80;;
11817;SDS011;5966;52.402;5.322;2023-03-23T03:30:18;2.43;;;1.60;;
11817;SDS011;5966;52.402;5.322;2023-03-23T03:32:49;3.20;;;1.60;;
11817;SDS011;5966;52.402;5.322;2023-03-23T03:35:18;2.60;;;1.60;;
11817;SDS011;5966;52.402;5.322;2023-03-23T03:37:46;4.33;;;1.90;;
11817;SDS011;5966;52.402;5.322;2023-03-23T03:40:15;3.23;;;1.57;;
11817;SDS011;5966;52.402;5.322;2023-03-23T03:42:45;2.80;;;1.80;;
11817;SDS011;5966;52.402;5.322;2023-03-23T03:45:13;2.83;;;1.70;;
11817;SDS011;5966;52.402;5.322;2023-03-23T03:47:40;5.47;;;1.70;;
11817;SDS011;5966;52.402;5.322;2023-03-23T03:50:07;5.30;;;1.70;;
11817;SDS011;5966;52.402;5.322;2023-03-23T03:52:35;4.37;;;1.80;;
11817;SDS011;5966;52.402;5.322;2023-03-23T03:55:03;4.17;;;1.90;;
11817;SDS011;5966;52.402;5.322;2023-03-23T03:57:33;3.80;;;1.53;;
11817;SDS011;5966;52.402;5.322;2023-03-23T04:00:00;2.93;;;1.57;;
11817;SDS011;5966;52.402;5.322;2023-03-23T04:02:37;9.27;;;2.20;;
11817;SDS011;5966;52.402;5.322;2023-03-23T04:05:05;3.60;;;1.80;;
11817;SDS011;5966;52.402;5.322;2023-03-23T04:07:34;3.30;;;1.80;;
11817;SDS011;5966;52.402;5.322;2023-03-23T04:10:02;3.80;;;1.87;;
11817;SDS011;5966;52.402;5.322;2023-03-23T04:12:30;3.30;;;1.90;;
11817;SDS011;5966;52.402;5.322;2023-03-23T04:14:58;2.67;;;1.70;;
11817;SDS011;5966;52.402;5.322;2023-03-23T04:17:25;6.77;;;2.20;;
11817;SDS011;5966;52.402;5.322;2023-03-23T04:19:52;5.40;;;1.63;;
11817;SDS011;5966;52.402;5.322;2023-03-23T04:22:21;4.10;;;1.73;;
11817;SDS011;5966;52.402;5.322;2023-03-23T04:24:55;4.33;;;1.53;;
11817;SDS011;5966;52.402;5.322;2023-03-23T04:27:25;5.60;;;1.80;;
11817;SDS011;5966;52.402;5.322;2023-03-23T04:29:56;5.47;;;1.60;;
11817;SDS011;5966;52.402;5.322;2023-03-23T04:32:24;2.83;;;1.50;;
11817;SDS011;5966;52.402;5.322;2023-03-23T04:34:54;3.83;;;1.70;;
11817;SDS011;5966;52.402;5.322;2023-03-23T04:37:23;3.27;;;1.43;;
11817;SDS011;5966;52.402;5.322;2023-03-23T04:39:54;3.23;;;1.50;;
11817;SDS011;5966;52.402;5.322;2023-03-23T04:42:26;2.60;;;1.40;;
11817;SDS011;5966;52.402;5.322;2023-03-23T04:44:55;4.13;;;1.60;;
11817;SDS011;5966;52.402;5.322;2023-03-23T04:47:23;1.53;;;1.20;;
11817;SDS011;5966;52.402;5.322;2023-03-23T04:49:54;2.87;;;1.30;;
11817;SDS011;5966;52.402;5.322;2023-03-23T04:52:22;3.07;;;1.70;;
11817;SDS011;5966;52.402;5.322;2023-03-23T04:54:50;2.40;;;1.80;;
11817;SDS011;5966;52.402;5.322;2023-03-23T04:57:17;5.23;;;1.87;;
11817;SDS011;5966;52.402;5.322;2023-03-23T04:59:44;4.57;;;1.90;;
11817;SDS011;5966;52.402;5.322;2023-03-23T05:02:13;7.10;;;1.97;;
11817;SDS011;5966;52.402;5.322;2023-03-23T05:04:42;7.27;;;2.00;;
11817;SDS011;5966;52.402;5.322;2023-03-23T05:07:10;5.80;;;2.07;;
11817;SDS011;5966;52.402;5.322;2023-03-23T05:09:37;4.23;;;1.83;;
11817;SDS011;5966;52.402;5.322;2023-03-23T05:12:04;6.23;;;2.17;;
11817;SDS011;5966;52.402;5.322;2023-03-23T05:14:32;7.67;;;2.23;;
11817;SDS011;5966;52.402;5.322;2023-03-23T05:16:59;6.10;;;2.07;;
11817;SDS011;5966;52.402;5.322;2023-03-23T05:19:27;6.70;;;2.00;;
11817;SDS011;5966;52.402;5.322;2023-03-23T05:21:56;5.80;;;2.27;;
11817;SDS011;5966;52.402;5.322;2023-03-23T05:24:28;7.83;;;2.17;;
11817;SDS011;5966;52.402;5.322;2023-03-23T05:26:56;9.57;;;2.80;;
11817;SDS011;5966;52.402;5.322;2023-03-23T05:29:23;5.93;;;2.03;;
11817;SDS011;5966;52.402;5.322;2023-03-23T05:31:50;7.00;;;2.27;;
11817;SDS011;5966;52.402;5.322;2023-03-23T05:34:20;6.60;;;2.10;;
11817;SDS011;5966;52.402;5.322;2023-03-23T05:36:49;5.80;;;2.40;;
11817;SDS011;5966;52.402;5.322;2023-03-23T05:39:18;8.57;;;2.53;;
11817;SDS011;5966;52.402;5.322;2023-03-23T05:41:45;9.40;;;3.43;;
11817;SDS011;5966;52.402;5.322;2023-03-23T05:44:12;6.40;;;2.20;;
11817;SDS011;5966;52.402;5.322;2023-03-23T05:46:39;8.73;;;2.17;;
11817;SDS011;5966;52.402;5.322;2023-03-23T05:49:06;10.10;;;2.70;;
11817;SDS011;5966;52.402;5.322;2023-03-23T05:51:33;10.67;;;2.53;;
11817;SDS011;5966;52.402;5.322;2023-03-23T05:54:02;9.80;;;2.43;;
11817;SDS011;5966;52.402;5.322;2023-03-23T05:56:29;7.80;;;2.17;;
11817;SDS011;5966;52.402;5.322;2023-03-23T05:58:56;6.87;;;2.07;;
11817;SDS011;5966;52.402;5.322;2023-03-23T06:01:24;8.83;;;2.20;;
11817;SDS011;5966;52.402;5.322;2023-03-23T06:03:51;4.13;;;1.87;;
11817;SDS011;5966;52.402;5.322;2023-03-23T06:06:19;6.60;;;2.20;;
11817;SDS011;5966;52.402;5.322;2023-03-23T06:08:46;8.27;;;2.33;;
11817;SDS011;5966;52.402;5.322;2023-03-23T06:11:16;11.70;;;2.50;;
11817;SDS011;5966;52.402;5.322;2023-03-23T06:13:43;8.93;;;2.50;;
11817;SDS011;5966;52.402;5.322;2023-03-23T06:16:10;8.63;;;2.07;;
11817;SDS011;5966;52.402;5.322;2023-03-23T06:18:37;7.03;;;2.33;;
11817;SDS011;5966;52.402;5.322;2023-03-23T06:21:06;9.73;;;2.40;;
11817;SDS011;5966;52.402;5.322;2023-03-23T06:23:33;10.87;;;2.47;;
11817;SDS011;5966;52.402;5.322;2023-03-23T06:26:00;7.77;;;2.37;;
11817;SDS011;5966;52.402;5.322;2023-03-23T06:28:31;6.37;;;2.33;;
11817;SDS011;5966;52.402;5.322;2023-03-23T06:30:59;6.60;;;2.17;;
11817;SDS011;5966;52.402;5.322;2023-03-23T06:33:26;7.37;;;2.50;;
11817;SDS011;5966;52.402;5.322;2023-03-23T06:35:53;8.93;;;2.30;;
11817;SDS011;5966;52.402;5.322;2023-03-23T06:38:21;9.17;;;2.67;;
11817;SDS011;5966;52.402;5.322;2023-03-23T06:40:48;11.13;;;2.60;;
11817;SDS011;5966;52.402;5.322;2023-03-23T06:43:17;10.20;;;2.90;;
11817;SDS011;5966;52.402;5.322;2023-03-23T06:45:45;9.70;;;2.30;;
11817;SDS011;5966;52.402;5.322;2023-03-23T06:48:12;10.27;;;2.80;;
11817;SDS011;5966;52.402;5.322;2023-03-23T06:50:41;8.10;;;2.53;;
11817;SDS011;5966;52.402;5.322;2023-03-23T06:53:08;11.53;;;3.20;;
11817;SDS011;5966;52.402;5.322;2023-03-23T06:55:35;13.63;;;2.73;;
11817;SDS011;5966;52.402;5.322;2023-03-23T06:58:03;9.33;;;2.20;;
11817;SDS011;5966;52.402;5.322;2023-03-23T07:00:30;6.97;;;2.60;;
11817;SDS011;5966;52.402;5.322;2023-03-23T07:02:59;11.67;;;2.67;;
11817;SDS011;5966;52.402;5.322;2023-03-23T07:05:26;9.50;;;3.13;;
11817;SDS011;5966;52.402;5.322;2023-03-23T07:07:54;10.60;;;2.80;;
11817;SDS011;5966;52.402;5.322;2023-03-23T07:10:21;9.33;;;2.60;;
11817;SDS011;5966;52.402;5.322;2023-03-23T07:12:48;10.20;;;3.53;;
11817;SDS011;5966;52.402;5.322;2023-03-23T07:15:15;8.77;;;2.83;;
11817;SDS011;5966;52.402;5.322;2023-03-23T07:17:42;9.30;;;2.70;;
11817;SDS011;5966;52.402;5.322;2023-03-23T07:20:12;14.50;;;3.60;;
11817;SDS011;5966;52.402;5.322;2023-03-23T07:22:39;9.27;;;2.73;;
11817;SDS011;5966;52.402;5.322;2023-03-23T07:25:06;10.00;;;3.20;;
11817;SDS011;5966;52.402;5.322;2023-03-23T07:27:34;16.80;;;3.50;;
11817;SDS011;5966;52.402;5.322;2023-03-23T07:30:01;13.10;;;3.03;;
11817;SDS011;5966;52.402;5.322;2023-03-23T07:32:28;14.00;;;3.10;;
11817;SDS011;5966;52.402;5.322;2023-03-23T07:34:55;13.13;;;3.57;;
11817;SDS011;5966;52.402;5.322;2023-03-23T07:37:24;10.40;;;2.80;;
11817;SDS011;5966;52.402;5.322;2023-03-23T07:39:51;15.27;;;3.23;;
11817;SDS011;5966;52.402;5.322;2023-03-23T07:42:18;8.50;;;2.47;;
11817;SDS011;5966;52.402;5.322;2023-03-23T07:44:45;18.37;;;3.27;;
11817;SDS011;5966;52.402;5.322;2023-03-23T07:47:12;11.57;;;2.70;;
11817;SDS011;5966;52.402;5.322;2023-03-23T07:49:38;11.83;;;2.90;;
11817;SDS011;5966;52.402;5.322;2023-03-23T07:52:05;14.13;;;3.60;;
11817;SDS011;5966;52.402;5.322;2023-03-23T07:54:34;12.03;;;3.30;;
11817;SDS011;5966;52.402;5.322;2023-03-23T07:57:01;13.37;;;3.20;;
11817;SDS011;5966;52.402;5.322;2023-03-23T07:59:28;11.90;;;2.93;;
11817;SDS011;5966;52.402;5.322;2023-03-23T08:01:55;8.17;;;2.60;;
11817;SDS011;5966;52.402;5.322;2023-03-23T08:04:23;10.37;;;2.97;;
11817;SDS011;5966;52.402;5.322;2023-03-23T08:06:52;7.57;;;2.70;;
11817;SDS011;5966;52.402;5.322;2023-03-23T08:09:19;12.43;;;3.13;;
11817;SDS011;5966;52.402;5.322;2023-03-23T08:11:48;10.90;;;2.70;;
11817;SDS011;5966;52.402;5.322;2023-03-23T08:14:15;12.43;;;3.00;;
11817;SDS011;5966;52.402;5.322;2023-03-23T08:16:41;10.80;;;3.43;;
11817;SDS011;5966;52.402;5.322;2023-03-23T08:19:08;10.57;;;2.67;;
11817;SDS011;5966;52.402;5.322;2023-03-23T08:21:35;9.83;;;2.57;;
11817;SDS011;5966;52.402;5.322;2023-03-23T08:24:02;11.63;;;2.80;;
11817;SDS011;5966;52.402;5.322;2023-03-23T08:26:30;12.60;;;3.83;;
11817;SDS011;5966;52.402;5.322;2023-03-23T08:28:58;10.60;;;2.57;;
11817;SDS011;5966;52.402;5.322;2023-03-23T08:31:25;9.87;;;2.67;;
11817;SDS011;5966;52.402;5.322;2023-03-23T08:33:52;9.97;;;2.80;;
11817;SDS011;5966;52.402;5.322;2023-03-23T08:36:21;9.60;;;2.77;;
11817;SDS011;5966;52.402;5.322;2023-03-23T08:38:48;11.13;;;2.87;;
11817;SDS011;5966;52.402;5.322;2023-03-23T08:41:17;10.30;;;2.70;;
11817;SDS011;5966;52.402;5.322;2023-03-23T08:43:44;8.07;;;2.33;;
11817;SDS011;5966;52.402;5.322;2023-03-23T08:46:12;5.97;;;1.87;;
11817;SDS011;5966;52.402;5.322;2023-03-23T08:48:40;7.97;;;2.10;;
11817;SDS011;5966;52.402;5.322;2023-03-23T08:51:09;8.23;;;2.20;;
11817;SDS011;5966;52.402;5.322;2023-03-23T08:53:36;9.03;;;2.30;;
11817;SDS011;5966;52.402;5.322;2023-03-23T08:56:04;8.83;;;2.50;;
11817;SDS011;5966;52.402;5.322;2023-03-23T08:58:32;5.87;;;2.10;;
11817;SDS011;5966;52.402;5.322;2023-03-23T09:00:59;7.77;;;2.30;;
11817;SDS011;5966;52.402;5.322;2023-03-23T09:03:27;8.93;;;2.77;;
11817;SDS011;5966;52.402;5.322;2023-03-23T09:05:57;9.90;;;2.93;;
11817;SDS011;5966;52.402;5.322;2023-03-23T09:08:25;7.27;;;2.33;;
11817;SDS011;5966;52.402;5.322;2023-03-23T09:10:54;8.70;;;3.07;;
11817;SDS011;5966;52.402;5.322;2023-03-23T09:13:21;6.10;;;2.57;;
11817;SDS011;5966;52.402;5.322;2023-03-23T09:15:48;7.07;;;2.90;;
11817;SDS011;5966;52.402;5.322;2023-03-23T09:18:16;7.20;;;2.07;;
11817;SDS011;5966;52.402;5.322;2023-03-23T09:20:45;5.77;;;2.23;;
11817;SDS011;5966;52.402;5.322;2023-03-23T09:23:12;10.40;;;2.93;;
11817;SDS011;5966;52.402;5.322;2023-03-23T09:25:40;10.50;;;2.33;;
11817;SDS011;5966;52.402;5.322;2023-03-23T09:28:07;8.23;;;2.43;;
11817;SDS011;5966;52.402;5.322;2023-03-23T09:30:35;7.07;;;2.13;;
11817;SDS011;5966;52.402;5.322;2023-03-23T09:33:04;8.43;;;2.30;;
11817;SDS011;5966;52.402;5.322;2023-03-23T09:35:33;10.37;;;2.40;;
11817;SDS011;5966;52.402;5.322;2023-03-23T09:38:03;7.73;;;2.43;;
11817;SDS011;5966;52.402;5.322;2023-03-23T09:40:32;9.17;;;2.40;;
11817;SDS011;5966;52.402;5.322;2023-03-23T09:43:11;5.90;;;2.07;;
11817;SDS011;5966;52.402;5.322;2023-03-23T09:45:49;10.33;;;2.73;;
11817;SDS011;5966;52.402;5.322;2023-03-23T09:48:27;8.57;;;2.97;;
11817;SDS011;5966;52.402;5.322;2023-03-23T09:51:00;8.73;;;2.73;;
11817;SDS011;5966;52.402;5.322;2023-03-23T09:53:34;8.47;;;2.87;;
11817;SDS011;5966;52.402;5.322;2023-03-23T09:56:08;12.43;;;3.47;;
11817;SDS011;5966;52.402;5.322;2023-03-23T09:58:38;11.27;;;2.87;;
11817;SDS011;5966;52.402;5.322;2023-03-23T10:01:13;8.93;;;2.53;;
11817;SDS011;5966;52.402;5.322;2023-03-23T10:03:44;7.63;;;2.50;;
11817;SDS011;5966;52.402;5.322;2023-03-23T10:06:12;7.50;;;2.33;;
11817;SDS011;5966;52.402;5.322;2023-03-23T10:08:45;7.47;;;2.63;;
11817;SDS011;5966;52.402;5.322;2023-03-23T10:11:15;5.63;;;1.87;;
11817;SDS011;5966;52.402;5.322;2023-03-23T10:14:03;10.20;;;3.07;;
11817;SDS011;5966;52.402;5.322;2023-03-23T10:16:40;7.87;;;2.00;;
11817;SDS011;5966;52.402;5.322;2023-03-23T10:19:15;11.57;;;2.73;;
11817;SDS011;5966;52.402;5.322;2023-03-23T10:21:47;9.03;;;2.63;;
11817;SDS011;5966;52.402;5.322;2023-03-23T10:24:20;15.10;;;3.30;;
11817;SDS011;5966;52.402;5.322;2023-03-23T10:26:54;11.47;;;3.07;;
11817;SDS011;5966;52.402;5.322;2023-03-23T10:29:28;10.60;;;3.30;;
11817;SDS011;5966;52.402;5.322;2023-03-23T10:31:58;9.30;;;2.87;;
11817;SDS011;5966;52.402;5.322;2023-03-23T10:34:30;12.37;;;2.83;;
11817;SDS011;5966;52.402;5.322;2023-03-23T10:37:03;10.30;;;3.17;;
11817;SDS011;5966;52.402;5.322;2023-03-23T10:39:40;16.03;;;3.00;;
11817;SDS011;5966;52.402;5.322;2023-03-23T10:42:11;8.57;;;2.53;;
11817;SDS011;5966;52.402;5.322;2023-03-23T10:44:37;12.37;;;3.00;;
11817;SDS011;5966;52.402;5.322;2023-03-23T10:47:05;11.27;;;2.60;;
11817;SDS011;5966;52.402;5.322;2023-03-23T10:49:37;8.63;;;2.77;;
11817;SDS011;5966;52.402;5.322;2023-03-23T10:52:12;9.37;;;2.83;;
11817;SDS011;5966;52.402;5.322;2023-03-23T10:54:49;8.07;;;2.77;;
11817;SDS011;5966;52.402;5.322;2023-03-23T10:57:21;9.43;;;2.53;;
11817;SDS011;5966;52.402;5.322;2023-03-23T10:59:50;8.63;;;2.27;;
11817;SDS011;5966;52.402;5.322;2023-03-23T11:02:18;13.80;;;2.60;;
11817;SDS011;5966;52.402;5.322;2023-03-23T11:04:53;6.70;;;2.40;;
11817;SDS011;5966;52.402;5.322;2023-03-23T11:07:25;8.63;;;3.53;;
11817;SDS011;5966;52.402;5.322;2023-03-23T11:09:57;7.37;;;2.27;;
11817;SDS011;5966;52.402;5.322;2023-03-23T11:12:34;11.83;;;3.10;;
11817;SDS011;5966;52.402;5.322;2023-03-23T11:15:15;11.57;;;3.00;;
11817;SDS011;5966;52.402;5.322;2023-03-23T11:17:56;10.10;;;2.50;;
11817;SDS011;5966;52.402;5.322;2023-03-23T11:20:25;9.13;;;2.60;;
11817;SDS011;5966;52.402;5.322;2023-03-23T11:22:53;11.03;;;2.87;;
11817;SDS011;5966;52.402;5.322;2023-03-23T11:25:23;13.13;;;2.77;;
11817;SDS011;5966;52.402;5.322;2023-03-23T11:27:51;6.07;;;2.37;;
11817;SDS011;5966;52.402;5.322;2023-03-23T11:30:21;10.17;;;2.87;;
11817;SDS011;5966;52.402;5.322;2023-03-23T11:32:52;10.67;;;2.80;;
11817;SDS011;5966;52.402;5.322;2023-03-23T11:35:23;12.40;;;3.37;;
11817;SDS011;5966;52.402;5.322;2023-03-23T11:37:53;9.80;;;2.77;;
11817;SDS011;5966;52.402;5.322;2023-03-23T11:40:23;10.27;;;2.53;;
11817;SDS011;5966;52.402;5.322;2023-03-23T11:42:56;11.77;;;2.80;;
11817;SDS011;5966;52.402;5.322;2023-03-23T11:45:30;10.90;;;2.83;;
11817;SDS011;5966;52.402;5.322;2023-03-23T11:48:02;9.40;;;2.57;;
11817;SDS011;5966;52.402;5.322;2023-03-23T11:50:44;12.70;;;3.07;;
11817;SDS011;5966;52.402;5.322;2023-03-23T11:53:17;7.50;;;2.23;;
11817;SDS011;5966;52.402;5.322;2023-03-23T11:55:53;14.03;;;2.97;;
11817;SDS011;5966;52.402;5.322;2023-03-23T11:58:26;8.03;;;2.40;;
11817;SDS011;5966;52.402;5.322;2023-03-23T12:00:58;10.50;;;2.50;;
11817;SDS011;5966;52.402;5.322;2023-03-23T12:03:38;9.27;;;2.73;;
11817;SDS011;5966;52.402;5.322;2023-03-23T12:06:27;11.00;;;2.63;;
11817;SDS011;5966;52.402;5.322;2023-03-23T12:09:06;8.27;;;2.40;;
11817;SDS011;5966;52.402;5.322;2023-03-23T12:11:45;10.40;;;2.60;;
11817;SDS011;5966;52.402;5.322;2023-03-23T12:14:25;8.13;;;2.37;;
11817;SDS011;5966;52.402;5.322;2023-03-23T12:17:03;8.43;;;2.20;;
11817;SDS011;5966;52.402;5.322;2023-03-23T12:19:40;8.67;;;2.37;;
11817;SDS011;5966;52.402;5.322;2023-03-23T12:22:16;9.47;;;2.43;;
11817;SDS011;5966;52.402;5.322;2023-03-23T12:24:58;10.87;;;3.10;;
11817;SDS011;5966;52.402;5.322;2023-03-23T12:27:37;10.97;;;2.90;;
11817;SDS011;5966;52.402;5.322;2023-03-23T12:30:17;10.10;;;3.10;;
11817;SDS011;5966;52.402;5.322;2023-03-23T12:33:16;6.67;;;2.30;;
11817;SDS011;5966;52.402;5.322;2023-03-23T12:35:49;11.30;;;2.97;;
11817;SDS011;5966;52.402;5.322;2023-03-23T12:38:40;9.23;;;2.67;;
11817;SDS011;5966;52.402;5.322;2023-03-23T12:41:23;11.27;;;2.77;;
11817;SDS011;5966;52.402;5.322;2023-03-23T12:43:57;8.07;;;2.43;;
11817;SDS011;5966;52.402;5.322;2023-03-23T12:46:35;6.90;;;2.57;;
11817;SDS011;5966;52.402;5.322;2023-03-23T12:49:17;10.00;;;2.30;;
11817;SDS011;5966;52.402;5.322;2023-03-23T12:51:49;12.50;;;2.80;;
11817;SDS011;5966;52.402;5.322;2023-03-23T12:54:22;5.57;;;2.30;;
11817;SDS011;5966;52.402;5.322;2023-03-23T12:56:54;9.70;;;2.50;;
11817;SDS011;5966;52.402;5.322;2023-03-23T12:59:29;9.63;;;2.73;;
11817;SDS011;5966;52.402;5.322;2023-03-23T13:02:01;9.90;;;2.60;;
11817;SDS011;5966;52.402;5.322;2023-03-23T13:04:37;8.03;;;2.40;;
11817;SDS011;5966;52.402;5.322;2023-03-23T13:07:10;9.07;;;2.50;;
11817;SDS011;5966;52.402;5.322;2023-03-23T13:09:45;6.50;;;2.37;;
11817;SDS011;5966;52.402;5.322;2023-03-23T13:12:18;7.73;;;3.30;;
11817;SDS011;5966;52.402;5.322;2023-03-23T13:14:50;8.23;;;2.33;;
11817;SDS011;5966;52.402;5.322;2023-03-23T13:17:26;6.87;;;2.27;;
11817;SDS011;5966;52.402;5.322;2023-03-23T13:20:05;8.97;;;2.60;;
11817;SDS011;5966;52.402;5.322;2023-03-23T13:22:46;8.43;;;2.53;;
11817;SDS011;5966;52.402;5.322;2023-03-23T13:25:19;6.60;;;1.90;;
11817;SDS011;5966;52.402;5.322;2023-03-23T13:27:57;6.67;;;2.10;;
11817;SDS011;5966;52.402;5.322;2023-03-23T13:30:27;8.37;;;2.53;;
11817;SDS011;5966;52.402;5.322;2023-03-23T13:33:01;5.93;;;2.20;;
11817;SDS011;5966;52.402;5.322;2023-03-23T13:35:33;9.50;;;2.47;;
11817;SDS011;5966;52.402;5.322;2023-03-23T13:38:10;6.73;;;2.43;;
11817;SDS011;5966;52.402;5.322;2023-03-23T13:40:44;7.90;;;2.40;;
11817;SDS011;5966;52.402;5.322;2023-03-23T13:43:12;7.00;;;2.53;;
11817;SDS011;5966;52.402;5.322;2023-03-23T13:45:45;6.57;;;2.30;;
11817;SDS011;5966;52.402;5.322;2023-03-23T13:48:20;8.23;;;2.60;;
11817;SDS011;5966;52.402;5.322;2023-03-23T13:50:50;10.47;;;2.60;;
11817;SDS011;5966;52.402;5.322;2023-03-23T13:53:22;6.50;;;2.40;;
11817;SDS011;5966;52.402;5.322;2023-03-23T13:56:04;12.83;;;3.27;;
11817;SDS011;5966;52.402;5.322;2023-03-23T13:58:43;7.27;;;2.63;;
11817;SDS011;5966;52.402;5.322;2023-03-23T14:01:14;7.63;;;2.30;;
11817;SDS011;5966;52.402;5.322;2023-03-23T14:03:44;9.10;;;2.27;;
11817;SDS011;5966;52.402;5.322;2023-03-23T14:06:16;10.20;;;2.50;;
11817;SDS011;5966;52.402;5.322;2023-03-23T14:08:45;10.90;;;2.83;;
11817;SDS011;5966;52.402;5.322;2023-03-23T14:11:16;6.37;;;2.47;;
11817;SDS011;5966;52.402;5.322;2023-03-23T14:13:50;9.13;;;2.37;;
11817;SDS011;5966;52.402;5.322;2023-03-23T14:16:31;6.73;;;2.40;;
11817;SDS011;5966;52.402;5.322;2023-03-23T14:19:04;9.70;;;2.37;;
11817;SDS011;5966;52.402;5.322;2023-03-23T14:21:42;9.33;;;2.70;;
11817;SDS011;5966;52.402;5.322;2023-03-23T14:24:15;7.00;;;2.33;;
11817;SDS011;5966;52.402;5.322;2023-03-23T14:26:44;9.87;;;2.53;;
11817;SDS011;5966;52.402;5.322;2023-03-23T14:29:12;12.13;;;3.70;;
11817;SDS011;5966;52.402;5.322;2023-03-23T14:31:40;7.80;;;2.40;;
11817;SDS011;5966;52.402;5.322;2023-03-23T14:34:14;11.27;;;2.70;;
11817;SDS011;5966;52.402;5.322;2023-03-23T14:36:44;11.90;;;3.20;;
11817;SDS011;5966;52.402;5.322;2023-03-23T14:39:14;8.37;;;2.37;;
11817;SDS011;5966;52.402;5.322;2023-03-23T14:41:45;10.23;;;2.90;;
11817;SDS011;5966;52.402;5.322;2023-03-23T14:44:14;9.20;;;2.40;;
11817;SDS011;5966;52.402;5.322;2023-03-23T14:46:44;9.13;;;2.60;;
11817;SDS011;5966;52.402;5.322;2023-03-23T14:49:13;7.90;;;2.50;;
11817;SDS011;5966;52.402;5.322;2023-03-23T14:51:48;9.80;;;2.87;;
11817;SDS011;5966;52.402;5.322;2023-03-23T14:54:20;9.07;;;2.67;;
11817;SDS011;5966;52.402;5.322;2023-03-23T14:56:48;9.40;;;2.43;;
11817;SDS011;5966;52.402;5.322;2023-03-23T14:59:15;9.27;;;2.27;;
11817;SDS011;5966;52.402;5.322;2023-03-23T15:01:42;7.70;;;2.23;;
11817;SDS011;5966;52.402;5.322;2023-03-23T15:04:13;8.77;;;2.43;;
11817;SDS011;5966;52.402;5.322;2023-03-23T15:06:43;9.43;;;2.37;;
11817;SDS011;5966;52.402;5.322;2023-03-23T15:09:13;6.83;;;2.13;;
11817;SDS011;5966;52.402;5.322;2023-03-23T15:11:42;5.90;;;1.90;;
11817;SDS011;5966;52.402;5.322;2023-03-23T15:14:10;6.80;;;2.67;;
11817;SDS011;5966;52.402;5.322;2023-03-23T15:16:46;9.80;;;2.63;;
11817;SDS011;5966;52.402;5.322;2023-03-23T15:19:16;8.10;;;2.53;;
11817;SDS011;5966;52.402;5.322;2023-03-23T15:21:49;10.00;;;2.53;;